createdAt,value
2023-05-19T00:01:44.594Z,13.0
2023-05-19T00:06:50.795Z,10.0
2023-05-19T00:11:57.008Z,10.0
2023-05-19T00:17:03.214Z,11.0
2023-05-19T00:22:09.536Z,11.0
2023-05-19T00:27:15.630Z,12.0
2023-05-19T00:32:21.864Z,11.0
2023-05-19T00:37:28.047Z,12.0
2023-05-19T00:42:34.262Z,20.0
2023-05-19T00:47:40.503Z,14.0
2023-05-19T00:52:46.672Z,16.0
2023-05-19T00:57:52.884Z,14.0
2023-05-19T01:02:59.197Z,21.0
2023-05-19T01:08:05.300Z,22.0
2023-05-19T01:13:11.498Z,20.0
2023-05-19T01:18:17.717Z,13.0
2023-05-19T01:23:23.953Z,21.5
2023-05-19T01:28:30.138Z,12.0
2023-05-19T01:33:36.346Z,11.5
2023-05-19T01:38:42.548Z,9.0
2023-05-19T01:43:48.758Z,14.0
2023-05-19T01:48:54.966Z,16.0
2023-05-19T01:54:01.176Z,11.0
2023-05-19T01:59:07.388Z,9.0
2023-05-19T02:04:13.656Z,12.0
2023-05-19T02:09:19.812Z,11.5
2023-05-19T02:14:26.002Z,28.0
2023-05-19T02:19:32.212Z,22.0
2023-05-19T02:24:38.412Z,14.0
2023-05-19T02:29:44.628Z,19.0
2023-05-19T02:34:50.854Z,15.0
2023-05-19T02:39:57.040Z,19.0
2023-05-19T02:45:03.256Z,12.0
2023-05-19T02:50:09.454Z,10.0
2023-05-19T02:55:15.679Z,9.0
2023-05-19T03:00:20.905Z,10.0
2023-05-19T03:05:27.117Z,10.0
2023-05-19T03:10:33.486Z,10.0
2023-05-19T03:15:39.522Z,10.0
2023-05-19T03:20:45.726Z,10.0
2023-05-19T03:25:51.920Z,9.0
2023-05-19T03:30:58.135Z,9.0
2023-05-19T03:36:04.346Z,9.0
2023-05-19T03:41:10.551Z,11.0
2023-05-19T03:46:16.809Z,9.0
2023-05-19T03:51:22.964Z,11.0
2023-05-19T03:56:29.192Z,9.0
2023-05-19T04:01:35.387Z,10.0
2023-05-19T04:06:41.587Z,11.0
2023-05-19T04:11:47.805Z,12.0
2023-05-19T04:16:54.007Z,10.0
2023-05-19T04:22:00.220Z,9.5
2023-05-19T04:27:06.420Z,9.0
2023-05-19T04:32:12.629Z,10.0
2023-05-19T04:37:18.843Z,9.0
2023-05-19T04:42:25.045Z,11.0
2023-05-19T04:47:31.272Z,11.0
2023-05-19T04:52:37.468Z,10.0
2023-05-19T04:57:43.674Z,11.5
2023-05-19T05:02:49.987Z,9.0
2023-05-19T05:07:56.084Z,10.0
2023-05-19T05:13:02.300Z,10.0
2023-05-19T05:18:08.555Z,11.0
2023-05-19T05:23:14.736Z,11.0
2023-05-19T05:28:20.911Z,11.0
2023-05-19T05:33:27.381Z,10.0
2023-05-19T05:38:33.328Z,10.0
2023-05-19T05:43:39.534Z,11.0
2023-05-19T05:48:45.745Z,9.0
2023-05-19T05:53:51.973Z,10.0
2023-05-19T05:58:58.161Z,10.5
2023-05-19T06:04:04.374Z,11.0
2023-05-19T06:09:10.581Z,10.0
2023-05-19T06:14:16.790Z,9.0
2023-05-19T06:19:23.094Z,9.0
2023-05-19T06:24:29.207Z,10.0
2023-05-19T06:29:35.418Z,9.0
2023-05-19T06:34:41.628Z,9.0
2023-05-19T06:39:47.831Z,9.0
2023-05-19T06:44:54.029Z,10.0
2023-05-19T06:50:00.254Z,9.0
2023-05-19T06:55:06.482Z,9.5
2023-05-19T07:00:14.588Z,9.0
2023-05-19T07:05:18.897Z,8.0
2023-05-19T07:10:25.089Z,8.0
2023-05-19T07:15:31.330Z,8.0
2023-05-19T07:20:37.524Z,8.0
2023-05-19T07:25:43.726Z,7.0
2023-05-19T07:30:49.980Z,6.5
2023-05-19T07:35:56.142Z,6.0
2023-05-19T07:41:02.359Z,6.0
2023-05-19T07:46:08.615Z,5.0
2023-05-19T07:51:14.772Z,5.0
2023-05-19T07:56:20.987Z,6.0
2023-05-19T08:01:27.172Z,5.0
2023-05-19T08:06:33.391Z,6.0
2023-05-19T08:11:39.588Z,5.0
2023-05-19T08:16:45.816Z,4.0
2023-05-19T08:21:52.022Z,5.0
2023-05-19T08:26:58.233Z,6.0
2023-05-19T08:32:03.448Z,4.0
2023-05-19T08:37:09.650Z,4.0
2023-05-19T08:42:15.867Z,5.0
2023-05-19T08:47:22.073Z,5.0
2023-05-19T08:52:28.294Z,4.0
2023-05-19T08:57:34.508Z,4.0
2023-05-19T09:02:50.358Z,5.0
2023-05-19T09:07:45.964Z,5.0
2023-05-19T09:12:52.162Z,5.0
2023-05-19T09:17:58.451Z,5.5
2023-05-19T09:23:04.577Z,5.0
2023-05-19T09:28:10.785Z,4.0
2023-05-19T09:33:17.078Z,4.0
2023-05-19T09:38:23.212Z,5.0
2023-05-19T09:43:29.454Z,5.0
2023-05-19T09:48:35.634Z,4.0
2023-05-19T09:53:41.828Z,4.0
2023-05-19T09:58:48.060Z,4.0
2023-05-19T10:03:54.219Z,4.5
2023-05-19T10:09:00.421Z,4.0
2023-05-19T10:14:06.629Z,3.0
2023-05-19T10:19:12.873Z,4.0
2023-05-19T10:24:19.053Z,4.0
2023-05-19T10:29:25.274Z,5.0
2023-05-19T10:34:31.465Z,4.0
2023-05-19T10:39:37.675Z,4.0
2023-05-19T10:44:43.893Z,3.0
2023-05-19T10:49:50.117Z,3.0
2023-05-19T10:54:56.309Z,4.0
2023-05-19T11:00:02.523Z,4.0
2023-05-19T11:05:08.728Z,5.0
2023-05-19T11:10:15.022Z,5.0
2023-05-19T11:15:21.155Z,4.0
2023-05-19T11:20:27.357Z,4.0
2023-05-19T11:25:33.803Z,5.0
2023-05-19T11:30:39.767Z,5.0
2023-05-19T11:35:45.980Z,4.0
2023-05-19T11:40:52.182Z,4.0
2023-05-19T11:45:58.419Z,6.0
2023-05-19T11:51:04.614Z,4.0
2023-05-19T11:56:10.813Z,3.0
2023-05-19T12:01:17.018Z,4.0
2023-05-19T12:06:23.290Z,4.0
2023-05-19T12:11:29.446Z,3.0
2023-05-19T12:16:35.750Z,3.0
2023-05-19T12:21:41.852Z,4.0
2023-05-19T12:26:48.062Z,4.0
2023-05-19T12:31:54.327Z,3.0
2023-05-19T12:37:00.480Z,4.0
2023-05-19T12:42:06.690Z,5.0
2023-05-19T12:47:12.917Z,3.0
2023-05-19T12:52:19.113Z,4.0
2023-05-19T12:57:25.327Z,5.0
2023-05-19T13:02:31.645Z,4.0
2023-05-19T13:07:37.742Z,4.0
2023-05-19T13:12:43.947Z,4.0
2023-05-19T13:17:50.212Z,4.0
2023-05-19T13:22:56.375Z,3.0
2023-05-19T13:28:02.576Z,5.0
2023-05-19T13:33:08.817Z,4.0
2023-05-19T13:38:15.002Z,4.0
2023-05-19T13:43:21.205Z,4.0
2023-05-19T13:48:27.419Z,4.0
2023-05-19T13:53:33.621Z,4.0
2023-05-19T13:58:39.831Z,5.0
2023-05-19T14:03:46.113Z,5.0
2023-05-19T14:08:52.246Z,3.5
2023-05-19T14:13:58.455Z,3.0
2023-05-19T14:19:04.723Z,4.5
2023-05-19T14:24:11.741Z,5.0
2023-05-19T14:29:17.091Z,4.0
2023-05-19T14:34:22.305Z,4.0
2023-05-19T14:39:28.517Z,4.0
2023-05-19T14:44:34.725Z,5.0
2023-05-19T14:49:40.935Z,5.0
2023-05-19T14:54:47.145Z,3.0
2023-05-19T14:59:53.354Z,4.0
2023-05-19T15:04:59.563Z,5.0
2023-05-19T15:10:05.813Z,6.0
2023-05-19T15:15:11.986Z,6.0
2023-05-19T15:20:18.191Z,4.0
2023-05-19T15:25:24.396Z,3.0
2023-05-19T15:30:30.604Z,3.0
2023-05-19T15:35:36.812Z,4.0
2023-05-19T15:40:43.029Z,4.0
2023-05-19T15:45:49.344Z,5.0
2023-05-19T15:50:55.444Z,3.0
2023-05-19T15:56:03.317Z,6.0
2023-05-19T16:01:07.865Z,4.0
2023-05-19T16:06:14.083Z,5.0
2023-05-19T16:11:20.295Z,4.0
2023-05-19T16:16:26.524Z,4.0
2023-05-19T16:21:32.718Z,3.5
2023-05-19T16:26:38.944Z,4.0
2023-05-19T16:31:45.202Z,4.0
2023-05-19T16:36:51.343Z,6.0
2023-05-19T16:41:57.551Z,5.0
2023-05-19T16:47:03.764Z,3.0
2023-05-19T16:52:09.972Z,4.0
2023-05-19T16:57:16.178Z,4.5
2023-05-19T17:02:22.451Z,3.0
2023-05-19T17:07:28.592Z,4.0
2023-05-19T17:12:34.814Z,3.0
2023-05-19T17:17:41.092Z,3.0
2023-05-19T17:22:47.217Z,3.0
2023-05-19T17:27:53.435Z,4.0
2023-05-19T17:32:59.698Z,4.0
2023-05-19T17:38:05.853Z,3.0
2023-05-19T17:43:12.065Z,4.0
2023-05-19T17:48:18.263Z,3.0
2023-05-19T17:53:24.478Z,4.0
2023-05-19T17:58:30.684Z,2.5
2023-05-19T18:03:36.981Z,3.0
2023-05-19T18:08:43.103Z,2.0
2023-05-19T18:13:49.320Z,3.0
2023-05-19T18:18:55.574Z,2.0
2023-05-19T18:24:01.735Z,3.0
2023-05-19T18:29:07.945Z,4.0
2023-05-19T18:34:14.148Z,5.0
2023-05-19T19:40:35.174Z,3.0
2023-05-19T19:45:41.073Z,3.0
2023-05-19T19:50:47.421Z,3.0
2023-05-19T19:55:53.479Z,3.0
2023-05-19T20:00:59.700Z,6.0
2023-05-19T20:06:04.928Z,4.0
2023-05-19T20:11:11.139Z,3.0
2023-05-19T20:16:17.530Z,3.0
2023-05-19T20:21:23.544Z,3.0
2023-05-19T20:26:29.746Z,4.0
2023-05-19T20:31:35.958Z,2.0
2023-05-19T20:36:42.163Z,4.0
2023-05-19T20:41:48.377Z,4.0
2023-05-19T20:46:54.576Z,4.0
2023-05-19T20:52:00.793Z,3.0
2023-05-19T20:57:07.001Z,3.0
2023-05-19T21:02:13.213Z,4.0
2023-05-19T21:07:19.413Z,5.0
2023-05-19T21:12:25.627Z,3.0
2023-05-19T21:17:31.891Z,4.0
2023-05-19T21:22:38.059Z,3.0
2023-05-19T21:27:44.257Z,4.0
2023-05-19T21:32:50.502Z,3.0
2023-05-19T21:37:56.674Z,3.0
2023-05-19T21:43:02.878Z,4.0
2023-05-19T21:48:09.163Z,4.0
2023-05-19T21:53:15.289Z,3.0
2023-05-19T21:58:21.505Z,3.0
2023-05-19T22:03:27.856Z,3.0
2023-05-19T22:08:33.934Z,3.0
2023-05-19T22:13:40.118Z,3.0
2023-05-19T22:18:46.357Z,3.0
2023-05-19T22:23:52.536Z,3.0
2023-05-19T22:28:58.740Z,4.0
2023-05-19T22:34:05.022Z,3.0
2023-05-19T22:39:11.160Z,3.0
2023-05-19T22:44:17.380Z,4.0
2023-05-19T22:49:23.567Z,3.5
2023-05-19T22:59:35.981Z,4.0
2023-05-19T23:04:42.196Z,4.0
2023-05-19T23:09:48.401Z,5.0
2023-05-19T23:14:54.607Z,4.0
2023-05-19T23:20:00.820Z,4.0
2023-05-19T23:25:07.028Z,5.0
2023-05-19T23:30:13.257Z,4.0
2023-05-19T23:35:19.440Z,6.0
2023-05-19T23:40:25.660Z,4.0
2023-05-19T23:45:32.054Z,5.0
2023-05-19T23:50:38.072Z,5.0
2023-05-19T23:55:44.276Z,6.0
